sensor_id;sensor_type;location;lat;lon;timestamp;pressure;altitude;pressure_sealevel;temperature;humidity
59337;BME280;45115;52.002;4.686;2023-07-20T00:00:06;101504.22;;;15.52;100.00
59337;BME280;45115;52.002;4.686;2023-07-20T00:02:38;101493.88;;;15.36;100.00
59337;BME280;45115;52.002;4.686;2023-07-20T00:05:06;101496.47;;;15.38;100.00
59337;BME280;45115;52.002;4.686;2023-07-20T00:07:32;101500.06;;;15.30;100.00
59337;BME280;45115;52.002;4.686;2023-07-20T00:09:59;101494.22;;;15.33;100.00
59337;BME280;45115;52.002;4.686;2023-07-20T00:12:25;101501.06;;;15.29;100.00
59337;BME280;45115;52.002;4.686;2023-07-20T00:14:53;101504.84;;;15.28;100.00
59337;BME280;45115;52.002;4.686;2023-07-20T00:17:20;101506.91;;;15.26;100.00
59337;BME280;45115;52.002;4.686;2023-07-20T00:19:47;101504.78;;;15.20;100.00
59337;BME280;45115;52.002;4.686;2023-07-20T00:22:13;101501.16;;;15.20;100.00
59337;BME280;45115;52.002;4.686;2023-07-20T00:24:40;101494.00;;;15.09;100.00
59337;BME280;45115;52.002;4.686;2023-07-20T00:27:07;101494.84;;;15.10;100.00
59337;BME280;45115;52.002;4.686;2023-07-20T00:29:34;101495.38;;;15.13;100.00
59337;BME280;45115;52.002;4.686;2023-07-20T00:32:04;101496.38;;;15.04;100.00
59337;BME280;45115;52.002;4.686;2023-07-20T00:34:31;101499.34;;;15.11;100.00
59337;BME280;45115;52.002;4.686;2023-07-20T00:36:58;101503.59;;;15.05;100.00
59337;BME280;45115;52.002;4.686;2023-07-20T00:39:25;101506.31;;;15.15;100.00
59337;BME280;45115;52.002;4.686;2023-07-20T00:41:52;101508.56;;;15.19;100.00
59337;BME280;45115;52.002;4.686;2023-07-20T00:44:18;101507.31;;;15.14;100.00
59337;BME280;45115;52.002;4.686;2023-07-20T00:46:45;101501.56;;;15.07;100.00
59337;BME280;45115;52.002;4.686;2023-07-20T00:49:13;101502.72;;;15.05;100.00
59337;BME280;45115;52.002;4.686;2023-07-20T00:51:40;101504.22;;;14.99;100.00
59337;BME280;45115;52.002;4.686;2023-07-20T00:54:08;101504.09;;;15.01;100.00
59337;BME280;45115;52.002;4.686;2023-07-20T00:56:35;101507.94;;;14.90;100.00
59337;BME280;45115;52.002;4.686;2023-07-20T00:59:02;101506.03;;;14.91;100.00
59337;BME280;45115;52.002;4.686;2023-07-20T01:01:29;101506.69;;;14.85;100.00
59337;BME280;45115;52.002;4.686;2023-07-20T01:03:56;101504.53;;;14.79;100.00
59337;BME280;45115;52.002;4.686;2023-07-20T01:06:30;101508.38;;;14.68;100.00
59337;BME280;45115;52.002;4.686;2023-07-20T01:09:08;101512.34;;;14.66;100.00
59337;BME280;45115;52.002;4.686;2023-07-20T01:11:43;101504.50;;;14.61;100.00
59337;BME280;45115;52.002;4.686;2023-07-20T01:14:14;101503.78;;;14.59;100.00
59337;BME280;45115;52.002;4.686;2023-07-20T01:16:40;101511.81;;;14.52;100.00
59337;BME280;45115;52.002;4.686;2023-07-20T01:19:07;101514.78;;;14.41;100.00
59337;BME280;45115;52.002;4.686;2023-07-20T01:21:41;101510.59;;;14.37;100.00
59337;BME280;45115;52.002;4.686;2023-07-20T01:24:27;101519.59;;;14.39;100.00
59337;BME280;45115;52.002;4.686;2023-07-20T01:27:23;101523.97;;;14.32;100.00
59337;BME280;45115;52.002;4.686;2023-07-20T01:30:08;101512.72;;;14.16;100.00
59337;BME280;45115;52.002;4.686;2023-07-20T01:32:42;101525.75;;;14.14;100.00
59337;BME280;45115;52.002;4.686;2023-07-20T01:35:11;101523.97;;;13.96;100.00
59337;BME280;45115;52.002;4.686;2023-07-20T01:37:41;101523.25;;;13.94;100.00
59337;BME280;45115;52.002;4.686;2023-07-20T01:40:10;101519.03;;;13.99;100.00
59337;BME280;45115;52.002;4.686;2023-07-20T01:42:37;101521.72;;;14.09;100.00
59337;BME280;45115;52.002;4.686;2023-07-20T01:45:04;101518.66;;;14.12;100.00
59337;BME280;45115;52.002;4.686;2023-07-20T01:47:31;101524.63;;;14.07;100.00
59337;BME280;45115;52.002;4.686;2023-07-20T01:49:59;101528.25;;;14.08;100.00
59337;BME280;45115;52.002;4.686;2023-07-20T01:52:26;101526.00;;;13.94;100.00
59337;BME280;45115;52.002;4.686;2023-07-20T01:54:52;101531.38;;;13.86;100.00
59337;BME280;45115;52.002;4.686;2023-07-20T01:57:19;101544.28;;;13.85;100.00
59337;BME280;45115;52.002;4.686;2023-07-20T01:59:46;101532.66;;;13.91;100.00
59337;BME280;45115;52.002;4.686;2023-07-20T02:02:12;101534.41;;;13.83;100.00
59337;BME280;45115;52.002;4.686;2023-07-20T02:04:38;101532.09;;;13.88;100.00
59337;BME280;45115;52.002;4.686;2023-07-20T02:07:06;101535.56;;;13.90;100.00
59337;BME280;45115;52.002;4.686;2023-07-20T02:09:33;101525.44;;;13.81;100.00
59337;BME280;45115;52.002;4.686;2023-07-20T02:12:00;101530.53;;;13.76;100.00
59337;BME280;45115;52.002;4.686;2023-07-20T02:14:26;101531.00;;;13.62;100.00
59337;BME280;45115;52.002;4.686;2023-07-20T02:16:53;101538.72;;;13.49;100.00
59337;BME280;45115;52.002;4.686;2023-07-20T02:19:26;101538.13;;;13.35;100.00
59337;BME280;45115;52.002;4.686;2023-07-20T02:21:53;101536.66;;;13.31;100.00
59337;BME280;45115;52.002;4.686;2023-07-20T02:24:21;101540.19;;;13.24;100.00
59337;BME280;45115;52.002;4.686;2023-07-20T02:26:48;101533.66;;;13.25;100.00
59337;BME280;45115;52.002;4.686;2023-07-20T02:29:15;101543.34;;;13.29;100.00
59337;BME280;45115;52.002;4.686;2023-07-20T02:31:42;101544.50;;;13.26;100.00
59337;BME280;45115;52.002;4.686;2023-07-20T02:34:09;101542.94;;;13.24;100.00
59337;BME280;45115;52.002;4.686;2023-07-20T02:36:35;101535.84;;;13.12;100.00
59337;BME280;45115;52.002;4.686;2023-07-20T02:39:03;101533.59;;;12.96;100.00
59337;BME280;45115;52.002;4.686;2023-07-20T02:41:32;101534.88;;;12.83;100.00
59337;BME280;45115;52.002;4.686;2023-07-20T02:43:59;101527.97;;;12.79;100.00
59337;BME280;45115;52.002;4.686;2023-07-20T02:46:26;101536.78;;;12.92;100.00
59337;BME280;45115;52.002;4.686;2023-07-20T02:48:55;101535.03;;;12.81;100.00
59337;BME280;45115;52.002;4.686;2023-07-20T02:51:22;101531.41;;;12.71;100.00
59337;BME280;45115;52.002;4.686;2023-07-20T02:53:49;101542.22;;;12.63;100.00
59337;BME280;45115;52.002;4.686;2023-07-20T02:56:15;101540.19;;;12.56;100.00
59337;BME280;45115;52.002;4.686;2023-07-20T02:58:44;101543.69;;;12.58;100.00
59337;BME280;45115;52.002;4.686;2023-07-20T03:01:12;101553.81;;;12.67;100.00
59337;BME280;45115;52.002;4.686;2023-07-20T03:03:40;101543.97;;;12.74;100.00
59337;BME280;45115;52.002;4.686;2023-07-20T03:06:06;101558.78;;;12.82;100.00
59337;BME280;45115;52.002;4.686;2023-07-20T03:08:34;101554.00;;;12.84;100.00
59337;BME280;45115;52.002;4.686;2023-07-20T03:11:01;101560.06;;;12.78;100.00
59337;BME280;45115;52.002;4.686;2023-07-20T03:13:28;101564.81;;;12.67;100.00
59337;BME280;45115;52.002;4.686;2023-07-20T03:15:56;101568.28;;;12.59;100.00
59337;BME280;45115;52.002;4.686;2023-07-20T03:18:23;101560.00;;;12.50;100.00
59337;BME280;45115;52.002;4.686;2023-07-20T03:20:50;101576.34;;;12.51;100.00
59337;BME280;45115;52.002;4.686;2023-07-20T03:23:17;101576.06;;;12.54;100.00
59337;BME280;45115;52.002;4.686;2023-07-20T03:25:43;101573.47;;;12.62;100.00
59337;BME280;45115;52.002;4.686;2023-07-20T03:28:11;101572.88;;;12.59;100.00
59337;BME280;45115;52.002;4.686;2023-07-20T03:30:37;101572.31;;;12.55;100.00
59337;BME280;45115;52.002;4.686;2023-07-20T03:33:05;101569.09;;;12.50;100.00
59337;BME280;45115;52.002;4.686;2023-07-20T03:35:32;101573.00;;;12.48;100.00
59337;BME280;45115;52.002;4.686;2023-07-20T03:37:59;101570.38;;;12.46;100.00
59337;BME280;45115;52.002;4.686;2023-07-20T03:40:25;101569.41;;;12.47;100.00
59337;BME280;45115;52.002;4.686;2023-07-20T03:42:52;101573.19;;;12.56;100.00
59337;BME280;45115;52.002;4.686;2023-07-20T03:45:19;101570.44;;;12.65;100.00
59337;BME280;45115;52.002;4.686;2023-07-20T03:47:46;101568.81;;;12.53;100.00
59337;BME280;45115;52.002;4.686;2023-07-20T03:50:15;101573.00;;;12.48;100.00
59337;BME280;45115;52.002;4.686;2023-07-20T03:52:41;101564.91;;;12.46;100.00
59337;BME280;45115;52.002;4.686;2023-07-20T03:55:08;101567.53;;;12.57;100.00
59337;BME280;45115;52.002;4.686;2023-07-20T03:57:35;101570.03;;;12.70;100.00
59337;BME280;45115;52.002;4.686;2023-07-20T04:00:03;101557.47;;;12.86;100.00
59337;BME280;45115;52.002;4.686;2023-07-20T04:02:38;101564.00;;;12.85;100.00
59337;BME280;45115;52.002;4.686;2023-07-20T04:05:05;101566.31;;;12.80;100.00
59337;BME280;45115;52.002;4.686;2023-07-20T04:07:33;101567.44;;;12.68;100.00
59337;BME280;45115;52.002;4.686;2023-07-20T04:10:03;101566.13;;;12.63;100.00
59337;BME280;45115;52.002;4.686;2023-07-20T04:12:30;101569.59;;;12.65;100.00
59337;BME280;45115;52.002;4.686;2023-07-20T04:14:57;101579.47;;;12.77;100.00
59337;BME280;45115;52.002;4.686;2023-07-20T04:17:23;101572.38;;;12.84;100.00
59337;BME280;45115;52.002;4.686;2023-07-20T04:19:50;101575.72;;;12.87;100.00
59337;BME280;45115;52.002;4.686;2023-07-20T04:22:17;101576.16;;;12.92;100.00
59337;BME280;45115;52.002;4.686;2023-07-20T04:24:45;101576.16;;;12.92;100.00
59337;BME280;45115;52.002;4.686;2023-07-20T04:27:12;101576.00;;;12.94;100.00
59337;BME280;45115;52.002;4.686;2023-07-20T04:29:38;101588.06;;;13.02;100.00
59337;BME280;45115;52.002;4.686;2023-07-20T04:32:06;101580.41;;;13.06;100.00
59337;BME280;45115;52.002;4.686;2023-07-20T04:34:35;101584.16;;;13.14;100.00
59337;BME280;45115;52.002;4.686;2023-07-20T04:37:03;101591.41;;;13.25;100.00
59337;BME280;45115;52.002;4.686;2023-07-20T04:39:30;101591.59;;;13.33;100.00
59337;BME280;45115;52.002;4.686;2023-07-20T04:42:00;101584.47;;;13.40;100.00
59337;BME280;45115;52.002;4.686;2023-07-20T04:44:27;101586.78;;;13.54;100.00
59337;BME280;45115;52.002;4.686;2023-07-20T04:46:53;101585.59;;;13.76;100.00
59337;BME280;45115;52.002;4.686;2023-07-20T04:49:20;101586.84;;;13.91;100.00
59337;BME280;45115;52.002;4.686;2023-07-20T04:51:47;101589.16;;;14.05;100.00
59337;BME280;45115;52.002;4.686;2023-07-20T04:54:16;101591.72;;;14.25;100.00
59337;BME280;45115;52.002;4.686;2023-07-20T04:56:43;101591.41;;;14.38;100.00
59337;BME280;45115;52.002;4.686;2023-07-20T04:59:13;101591.34;;;14.47;100.00
59337;BME280;45115;52.002;4.686;2023-07-20T05:01:39;101596.63;;;14.68;100.00
59337;BME280;45115;52.002;4.686;2023-07-20T05:04:07;101591.16;;;14.86;100.00
59337;BME280;45115;52.002;4.686;2023-07-20T05:06:33;101588.03;;;14.98;100.00
59337;BME280;45115;52.002;4.686;2023-07-20T05:09:00;101587.19;;;15.15;100.00
59337;BME280;45115;52.002;4.686;2023-07-20T05:11:27;101586.25;;;15.24;100.00
59337;BME280;45115;52.002;4.686;2023-07-20T05:13:54;101587.03;;;15.70;100.00
59337;BME280;45115;52.002;4.686;2023-07-20T05:16:22;101580.47;;;16.14;100.00
59337;BME280;45115;52.002;4.686;2023-07-20T05:18:48;101596.72;;;16.76;100.00
59337;BME280;45115;52.002;4.686;2023-07-20T05:21:15;101601.69;;;17.06;100.00
59337;BME280;45115;52.002;4.686;2023-07-20T05:23:42;101597.25;;;17.29;100.00
59337;BME280;45115;52.002;4.686;2023-07-20T05:26:09;101593.56;;;17.13;100.00
59337;BME280;45115;52.002;4.686;2023-07-20T05:28:36;101596.31;;;16.97;100.00
59337;BME280;45115;52.002;4.686;2023-07-20T05:31:03;101597.50;;;16.52;100.00
59337;BME280;45115;52.002;4.686;2023-07-20T05:33:32;101599.59;;;16.33;100.00
59337;BME280;45115;52.002;4.686;2023-07-20T05:35:58;101595.34;;;16.13;100.00
59337;BME280;45115;52.002;4.686;2023-07-20T05:38:25;101591.06;;;16.01;100.00
59337;BME280;45115;52.002;4.686;2023-07-20T05:40:52;101596.47;;;16.02;100.00
59337;BME280;45115;52.002;4.686;2023-07-20T05:43:18;101599.81;;;16.14;100.00
59337;BME280;45115;52.002;4.686;2023-07-20T05:45:45;101599.09;;;16.12;100.00
59337;BME280;45115;52.002;4.686;2023-07-20T05:48:13;101592.22;;;16.16;100.00
59337;BME280;45115;52.002;4.686;2023-07-20T05:50:43;101587.63;;;16.24;100.00
59337;BME280;45115;52.002;4.686;2023-07-20T05:53:10;101591.97;;;16.27;100.00
59337;BME280;45115;52.002;4.686;2023-07-20T05:55:36;101595.47;;;16.37;100.00
59337;BME280;45115;52.002;4.686;2023-07-20T05:58:04;101592.66;;;17.78;100.00
59337;BME280;45115;52.002;4.686;2023-07-20T06:00:31;101597.47;;;18.87;96.26
59337;BME280;45115;52.002;4.686;2023-07-20T06:02:58;101595.19;;;19.21;97.79
59337;BME280;45115;52.002;4.686;2023-07-20T06:05:24;101584.53;;;20.52;96.43
59337;BME280;45115;52.002;4.686;2023-07-20T06:07:52;101587.13;;;21.12;91.71
59337;BME280;45115;52.002;4.686;2023-07-20T06:10:20;101585.53;;;21.60;86.33
59337;BME280;45115;52.002;4.686;2023-07-20T06:12:46;101591.63;;;22.40;84.32
59337;BME280;45115;52.002;4.686;2023-07-20T06:15:26;101588.06;;;22.80;85.47
59337;BME280;45115;52.002;4.686;2023-07-20T06:17:54;101601.16;;;22.52;80.89
59337;BME280;45115;52.002;4.686;2023-07-20T06:20:21;101595.38;;;21.98;84.21
59337;BME280;45115;52.002;4.686;2023-07-20T06:22:48;101593.75;;;20.82;80.03
59337;BME280;45115;52.002;4.686;2023-07-20T06:25:16;101600.28;;;19.48;83.44
59337;BME280;45115;52.002;4.686;2023-07-20T06:27:43;101602.84;;;18.42;85.51
59337;BME280;45115;52.002;4.686;2023-07-20T06:30:10;101605.47;;;18.82;86.23
59337;BME280;45115;52.002;4.686;2023-07-20T06:32:37;101608.69;;;18.63;85.58
59337;BME280;45115;52.002;4.686;2023-07-20T06:35:05;101614.38;;;18.69;85.41
59337;BME280;45115;52.002;4.686;2023-07-20T18:59:49;101375.41;;;18.56;60.12
59337;BME280;45115;52.002;4.686;2023-07-20T19:02:16;101372.69;;;18.48;61.14
59337;BME280;45115;52.002;4.686;2023-07-20T19:04:43;101375.84;;;18.45;61.16
59337;BME280;45115;52.002;4.686;2023-07-20T19:07:09;101370.13;;;18.47;61.01
59337;BME280;45115;52.002;4.686;2023-07-20T19:09:36;101375.84;;;18.45;61.78
59337;BME280;45115;52.002;4.686;2023-07-20T19:12:03;101369.94;;;18.48;61.06
59337;BME280;45115;52.002;4.686;2023-07-20T19:14:31;101371.16;;;18.46;62.75
59337;BME280;45115;52.002;4.686;2023-07-20T19:16:59;101373.41;;;18.42;62.53
59337;BME280;45115;52.002;4.686;2023-07-20T19:19:27;101373.91;;;18.46;62.62
59337;BME280;45115;52.002;4.686;2023-07-20T19:21:54;101371.72;;;18.41;62.81
59337;BME280;45115;52.002;4.686;2023-07-20T19:24:21;101375.22;;;18.27;63.97
59337;BME280;45115;52.002;4.686;2023-07-20T19:26:47;101370.06;;;18.16;64.97
59337;BME280;45115;52.002;4.686;2023-07-20T19:29:14;101374.81;;;18.08;66.06
59337;BME280;45115;52.002;4.686;2023-07-20T19:31:41;101374.16;;;17.98;66.74
59337;BME280;45115;52.002;4.686;2023-07-20T19:34:09;101381.78;;;17.96;67.55
59337;BME280;45115;52.002;4.686;2023-07-20T19:36:36;101380.78;;;17.89;67.60
59337;BME280;45115;52.002;4.686;2023-07-20T19:39:03;101381.53;;;17.74;67.66
59337;BME280;45115;52.002;4.686;2023-07-20T19:41:29;101375.78;;;17.76;68.92
59337;BME280;45115;52.002;4.686;2023-07-20T19:43:56;101376.53;;;17.70;69.35
59337;BME280;45115;52.002;4.686;2023-07-20T19:46:23;101385.53;;;17.72;69.92
59337;BME280;45115;52.002;4.686;2023-07-20T19:48:49;101383.28;;;17.67;70.25
59337;BME280;45115;52.002;4.686;2023-07-20T19:51:17;101386.78;;;17.61;71.48
59337;BME280;45115;52.002;4.686;2023-07-20T19:53:44;101390.75;;;17.59;71.58
59337;BME280;45115;52.002;4.686;2023-07-20T19:56:12;101385.91;;;17.53;71.99
59337;BME280;45115;52.002;4.686;2023-07-20T19:58:39;101387.81;;;17.52;71.30
59337;BME280;45115;52.002;4.686;2023-07-20T20:01:06;101391.44;;;17.53;71.59
59337;BME280;45115;52.002;4.686;2023-07-20T20:03:33;101394.22;;;17.53;70.99
59337;BME280;45115;52.002;4.686;2023-07-20T20:06:00;101397.16;;;17.51;71.10
59337;BME280;45115;52.002;4.686;2023-07-20T20:08:28;101399.09;;;17.51;71.89
59337;BME280;45115;52.002;4.686;2023-07-20T20:10:58;101389.53;;;17.45;72.40
59337;BME280;45115;52.002;4.686;2023-07-20T20:13:25;101395.06;;;17.45;72.53
59337;BME280;45115;52.002;4.686;2023-07-20T20:15:53;101398.53;;;17.55;71.92
59337;BME280;45115;52.002;4.686;2023-07-20T20:18:20;101388.66;;;17.53;72.58
59337;BME280;45115;52.002;4.686;2023-07-20T20:20:48;101398.53;;;17.55;73.69
59337;BME280;45115;52.002;4.686;2023-07-20T20:23:16;101399.59;;;17.46;73.98
59337;BME280;45115;52.002;4.686;2023-07-20T20:25:45;101396.66;;;17.48;73.90
59337;BME280;45115;52.002;4.686;2023-07-20T20:28:12;101399.94;;;17.51;72.61
59337;BME280;45115;52.002;4.686;2023-07-20T20:30:42;101391.09;;;17.40;72.40
59337;BME280;45115;52.002;4.686;2023-07-20T20:33:09;101393.72;;;17.33;72.36
59337;BME280;45115;52.002;4.686;2023-07-20T20:35:36;101399.59;;;17.38;72.52
59337;BME280;45115;52.002;4.686;2023-07-20T20:38:06;101393.19;;;17.22;72.45
59337;BME280;45115;52.002;4.686;2023-07-20T20:40:33;101391.47;;;17.21;72.43
59337;BME280;45115;52.002;4.686;2023-07-20T20:43:01;101393.19;;;17.30;72.08
59337;BME280;45115;52.002;4.686;2023-07-20T20:45:28;101388.16;;;17.25;73.19
59337;BME280;45115;52.002;4.686;2023-07-20T20:47:54;101391.63;;;17.11;73.76
59337;BME280;45115;52.002;4.686;2023-07-20T20:50:30;101396.16;;;17.04;74.41
59337;BME280;45115;52.002;4.686;2023-07-20T20:52:57;101390.78;;;17.03;74.91
59337;BME280;45115;52.002;4.686;2023-07-20T20:55:23;101388.72;;;16.97;75.00
59337;BME280;45115;52.002;4.686;2023-07-20T20:57:51;101394.06;;;16.90;76.08
59337;BME280;45115;52.002;4.686;2023-07-20T21:00:21;101396.16;;;16.96;74.70
59337;BME280;45115;52.002;4.686;2023-07-20T21:02:48;101390.44;;;16.82;75.28
59337;BME280;45115;52.002;4.686;2023-07-20T21:05:15;101393.91;;;16.84;75.62
59337;BME280;45115;52.002;4.686;2023-07-20T21:07:42;101391.13;;;16.84;75.32
59337;BME280;45115;52.002;4.686;2023-07-20T21:10:09;101380.59;;;16.79;75.10
59337;BME280;45115;52.002;4.686;2023-07-20T21:12:36;101381.81;;;16.85;75.77
59337;BME280;45115;52.002;4.686;2023-07-20T21:15:03;101386.47;;;16.84;75.42
59337;BME280;45115;52.002;4.686;2023-07-20T21:17:32;101377.81;;;16.87;75.43
59337;BME280;45115;52.002;4.686;2023-07-20T21:19:59;101372.63;;;16.84;75.46
59337;BME280;45115;52.002;4.686;2023-07-20T21:22:26;101376.94;;;16.87;75.03
59337;BME280;45115;52.002;4.686;2023-07-20T21:24:53;101375.91;;;16.88;75.77
59337;BME280;45115;52.002;4.686;2023-07-20T21:27:19;101379.38;;;16.90;75.71
59337;BME280;45115;52.002;4.686;2023-07-20T21:29:46;101375.22;;;16.94;75.97
59337;BME280;45115;52.002;4.686;2023-07-20T21:32:13;101375.38;;;16.92;76.19
59337;BME280;45115;52.002;4.686;2023-07-20T21:34:43;101371.75;;;16.84;76.79
59337;BME280;45115;52.002;4.686;2023-07-20T21:37:10;101365.53;;;16.82;77.13
59337;BME280;45115;52.002;4.686;2023-07-20T21:39:36;101376.28;;;16.85;77.38
59337;BME280;45115;52.002;4.686;2023-07-20T21:42:03;101381.44;;;16.80;77.07
59337;BME280;45115;52.002;4.686;2023-07-20T21:44:30;101382.31;;;16.72;77.87
59337;BME280;45115;52.002;4.686;2023-07-20T21:46:57;101374.19;;;16.70;78.09
59337;BME280;45115;52.002;4.686;2023-07-20T21:49:24;101372.78;;;16.66;77.93
59337;BME280;45115;52.002;4.686;2023-07-20T21:51:52;101375.22;;;16.69;78.71
59337;BME280;45115;52.002;4.686;2023-07-20T21:54:19;101377.28;;;16.59;78.74
59337;BME280;45115;52.002;4.686;2023-07-20T21:56:45;101376.94;;;16.54;78.61
59337;BME280;45115;52.002;4.686;2023-07-20T21:59:12;101372.94;;;16.57;78.71
59337;BME280;45115;52.002;4.686;2023-07-20T22:01:39;101377.72;;;16.39;80.00
59337;BME280;45115;52.002;4.686;2023-07-20T22:04:05;101377.16;;;16.27;80.40
59337;BME280;45115;52.002;4.686;2023-07-20T22:06:34;101367.13;;;16.18;80.88
59337;BME280;45115;52.002;4.686;2023-07-20T22:09:02;101379.38;;;16.16;82.11
59337;BME280;45115;52.002;4.686;2023-07-20T22:11:29;101383.38;;;16.21;82.17
59337;BME280;45115;52.002;4.686;2023-07-20T22:13:56;101377.50;;;16.24;82.27
59337;BME280;45115;52.002;4.686;2023-07-20T22:16:23;101382.34;;;16.22;82.79
59337;BME280;45115;52.002;4.686;2023-07-20T22:18:49;101376.28;;;16.19;82.66
59337;BME280;45115;52.002;4.686;2023-07-20T22:21:16;101374.94;;;16.31;82.13
59337;BME280;45115;52.002;4.686;2023-07-20T22:23:44;101362.84;;;16.40;82.28
59337;BME280;45115;52.002;4.686;2023-07-20T22:26:12;101375.00;;;16.47;82.25
59337;BME280;45115;52.002;4.686;2023-07-20T22:28:38;101375.16;;;16.37;82.08
59337;BME280;45115;52.002;4.686;2023-07-20T22:31:05;101378.75;;;16.30;82.75
59337;BME280;45115;52.002;4.686;2023-07-20T22:33:32;101380.97;;;16.26;82.85
59337;BME280;45115;52.002;4.686;2023-07-20T22:35:58;101375.94;;;16.22;83.70
59337;BME280;45115;52.002;4.686;2023-07-20T22:38:25;101365.91;;;16.13;84.03
59337;BME280;45115;52.002;4.686;2023-07-20T22:40:52;101370.03;;;16.09;83.40
59337;BME280;45115;52.002;4.686;2023-07-20T22:43:21;101370.88;;;16.01;84.80
59337;BME280;45115;52.002;4.686;2023-07-20T22:45:50;101367.41;;;15.99;85.64
59337;BME280;45115;52.002;4.686;2023-07-20T22:48:17;101367.97;;;16.11;84.48
59337;BME280;45115;52.002;4.686;2023-07-20T22:50:47;101360.34;;;16.05;83.97
59337;BME280;45115;52.002;4.686;2023-07-20T22:53:14;101359.81;;;16.01;83.72
59337;BME280;45115;52.002;4.686;2023-07-20T22:55:42;101358.47;;;16.13;82.57
59337;BME280;45115;52.002;4.686;2023-07-20T22:58:09;101354.16;;;16.11;82.24
59337;BME280;45115;52.002;4.686;2023-07-20T23:00:37;101350.66;;;16.01;82.52
59337;BME280;45115;52.002;4.686;2023-07-20T23:03:04;101347.59;;;16.12;81.85
59337;BME280;45115;52.002;4.686;2023-07-20T23:05:31;101354.09;;;15.95;82.48
59337;BME280;45115;52.002;4.686;2023-07-20T23:07:58;101344.72;;;15.80;82.82
59337;BME280;45115;52.002;4.686;2023-07-20T23:10:25;101342.63;;;15.74;83.47
59337;BME280;45115;52.002;4.686;2023-07-20T23:12:52;101334.88;;;15.77;82.32
59337;BME280;45115;52.002;4.686;2023-07-20T23:15:19;101347.78;;;15.69;82.76
59337;BME280;45115;52.002;4.686;2023-07-20T23:17:47;101343.44;;;15.66;83.39
59337;BME280;45115;52.002;4.686;2023-07-20T23:20:14;101347.34;;;15.55;83.57
59337;BME280;45115;52.002;4.686;2023-07-20T23:22:45;101338.09;;;15.64;82.91
59337;BME280;45115;52.002;4.686;2023-07-20T23:25:18;101342.88;;;15.54;83.46
59337;BME280;45115;52.002;4.686;2023-07-20T23:27:45;101332.84;;;15.53;83.43
59337;BME280;45115;52.002;4.686;2023-07-20T23:30:12;101342.06;;;15.62;83.30
59337;BME280;45115;52.002;4.686;2023-07-20T23:32:39;101335.66;;;15.61;83.17
59337;BME280;45115;52.002;4.686;2023-07-20T23:35:08;101329.72;;;15.48;83.47
59337;BME280;45115;52.002;4.686;2023-07-20T23:37:36;101334.69;;;15.45;83.54
59337;BME280;45115;52.002;4.686;2023-07-20T23:40:04;101337.78;;;15.42;84.19
59337;BME280;45115;52.002;4.686;2023-07-20T23:42:38;101337.78;;;15.42;84.09
59337;BME280;45115;52.002;4.686;2023-07-20T23:45:06;101331.69;;;15.38;84.44
59337;BME280;45115;52.002;4.686;2023-07-20T23:47:34;101334.09;;;15.33;83.96
59337;BME280;45115;52.002;4.686;2023-07-20T23:50:01;101324.75;;;15.26;84.28
59337;BME280;45115;52.002;4.686;2023-07-20T23:52:29;101324.38;;;15.21;84.40
59337;BME280;45115;52.002;4.686;2023-07-20T23:55:00;101330.91;;;15.20;84.46
